• Join FlightAware (Why Join?)
  • Login
  • US Flag 
01:54AM EDT


 

Airport Tracker/Info


-or-


 

Live Flight TrackerFlight Track Log ✈ XA-ASH ✈ 21-Apr-2013 ✈ KBRO - MMAN / NTR

Flight Track Log - Related Links

Times and Time Zones

All times are in EDT time to prevent confusion due to time zone crossing. See the XA-ASH flight status page for this flight to view local times or setup timezone preferences in your user account.

Time Position Orientation Groundspeed Altitude Reporting Facility
EDT Latitude Longitude Course Direction KTS MPH feet Rate Location/Type
01:35PM 25.8950 -97.4136 194° South 173 199 800  Level Houston Center
01:36PM 25.8622 -97.4228 194° South 210 242 3,100 3,180 Climbing Houston Center
01:37PM 25.8697 -97.4633 282° West 234 269 5,100 3,000 Climbing Houston Center
01:37PM 25.8825 -97.4922 296° West 246 283 6,100 2,700 Climbing Houston Center
01:38PM 25.9056 -97.5422 297° West 262 302 7,900 2,640 Climbing Houston Center
01:39PM 25.9122 -97.6286 275° West 280 322 10,600 2,580 Climbing Houston Center
01:40PM 25.9089 -97.7269 268° West 293 337 13,300 2,460 Climbing Houston Center
01:41PM 25.9017 -97.8189 265° West 297 342 15,800 2,100 Climbing Houston Center
01:42PM 25.8964 -97.9197 267° West 302 348 17,700 960 Climbing Houston Center
01:43PM 25.8906 -98.0225 266° West 329 379 17,800  Climbing Houston Center
01:44PM 25.8842 -98.1303 266° West 347 399 17,800  Level Houston Center
01:45PM 25.8792 -98.2472 267° West 351 404 17,800  Level Houston Center
01:46PM 25.8739 -98.3572 267° West 357 411 17,800  Level Houston Center
01:47PM 25.8681 -98.4750 267° West 356 410 17,800  Level Houston Center
01:48PM 25.8606 -98.5844 266° West 356 410 17,800  Level Houston Center
01:49PM 25.8544 -98.7031 267° West 356 410 17,800  Level Houston Center
01:50PM 25.8511 -98.7931 268° West 355 409 17,800  Level Houston Center
01:51PM 25.8439 -98.9269 267° West 358 412 17,800  Level Houston Center
01:52PM 25.8378 -99.0342 266° West 356 410 17,800  Level Houston Center
01:53PM 25.8306 -99.1444 266° West 356 410 17,800  Level Houston Center
01:54PM 25.8236 -99.2578 266° West 359 413 17,800 -660 Level Houston Center
01:55PM 25.8314 -99.3694 274° West 366 421 16,500 -1,500 Descending Houston Center
01:56PM 25.8481 -99.4817 279° West 372 428 14,800 -1,860 Descending Houston Center
01:57PM 25.8656 -99.6142 278° West 370 426 12,700 -1,800 Descending Houston Center
01:58PM 25.8778 -99.7111 278° West 354 407 11,100 -1,500 Descending Houston Center
01:59PM 25.8894 -99.8000 278° West 331 381 9,600 -1,500 Descending Houston Center
02:00PM 25.8986 -99.8844 277° West 310 357 8,100 -1,380 Descending Houston Center
02:01PM 25.9083 -99.9647 278° West 290 334 6,800 -1,080 Descending Houston Center
02:03PM 25.9211 -100.0519 279° West 279 321 5,900 -900 Descending Houston Center